createdAt,value
2023-09-13T00:00:15.525Z,97775.34
2023-09-13T00:05:17.595Z,97771.34
2023-09-13T00:10:20.098Z,97771.94
2023-09-13T00:15:22.072Z,97767.31
2023-09-13T00:20:23.882Z,97765.56
2023-09-13T00:25:25.702Z,97763.97
2023-09-13T00:30:27.659Z,97747.38
2023-09-13T00:35:29.660Z,97750.91
2023-09-13T00:40:31.548Z,97752.16
2023-09-13T00:45:35.077Z,97749.63
2023-09-13T00:50:51.363Z,97760.47
2023-09-13T00:55:55.886Z,97765.16
2023-09-13T01:00:57.953Z,97773.09
2023-09-13T01:06:00.520Z,97776.09
2023-09-13T01:11:02.582Z,97814.38
2023-09-13T01:16:33.280Z,97849.47
2023-09-13T01:21:53.167Z,97873.59
2023-09-13T01:27:13.535Z,97874.78
2023-09-13T01:32:15.383Z,97865.38
2023-09-13T01:37:17.377Z,97857.69
2023-09-13T01:42:20.348Z,97862.00
2023-09-13T01:47:23.289Z,97845.53
2023-09-13T01:52:25.161Z,97862.13
2023-09-13T01:57:27.086Z,97871.66
2023-09-13T02:02:28.978Z,97866.41
2023-09-13T02:07:30.804Z,97833.81
2023-09-13T02:12:32.662Z,97852.03
2023-09-13T02:17:35.662Z,97853.75
2023-09-13T02:22:37.460Z,97876.94
2023-09-13T02:27:39.986Z,97837.28
2023-09-13T02:32:42.408Z,97830.88
2023-09-13T02:37:44.495Z,97839.16
2023-09-13T02:42:46.399Z,97848.59
2023-09-13T02:47:48.409Z,97823.44
2023-09-13T02:52:50.299Z,97820.66
2023-09-13T02:57:54.416Z,97850.25
2023-09-13T03:02:59.385Z,97859.53
2023-09-13T03:08:02.132Z,97860.09
2023-09-13T03:13:05.016Z,97848.38
2023-09-13T03:18:07.308Z,97837.88
2023-09-13T03:23:09.321Z,97828.38
2023-09-13T03:28:11.257Z,97820.63
2023-09-13T03:33:13.529Z,97811.56
2023-09-13T03:38:15.488Z,97809.59
2023-09-13T03:43:17.461Z,97799.63
2023-09-13T03:48:19.413Z,97810.78
2023-09-13T03:53:21.647Z,97816.53
2023-09-13T03:58:24.352Z,97812.44
2023-09-13T04:03:27.306Z,97808.38
2023-09-13T04:08:30.069Z,97811.91
2023-09-13T04:13:32.195Z,97814.69
2023-09-13T04:18:34.103Z,97817.78
2023-09-13T04:23:36.133Z,97815.34
2023-09-13T04:28:38.113Z,97809.69
2023-09-13T04:33:54.554Z,97804.28
2023-09-13T04:39:03.689Z,97819.84
2023-09-13T04:44:06.247Z,97822.41
2023-09-13T04:49:08.548Z,97825.28
2023-09-13T04:54:10.518Z,97836.09
2023-09-13T04:59:12.591Z,97830.81
2023-09-13T05:04:14.504Z,97835.22
2023-09-13T05:09:16.313Z,97835.34
2023-09-13T05:14:18.163Z,97825.41
2023-09-13T05:19:20.169Z,97829.16
2023-09-13T05:24:22.004Z,97836.88
2023-09-13T05:29:24.223Z,97840.44
2023-09-13T05:34:26.153Z,97833.13
2023-09-13T05:39:28.031Z,97837.22
2023-09-13T05:44:29.891Z,97838.72
2023-09-13T05:49:31.750Z,97828.09
2023-09-13T05:54:33.568Z,97824.84
2023-09-13T05:59:40.913Z,97840.63
2023-09-13T06:04:42.948Z,97835.94
2023-09-13T06:09:45.026Z,97844.75
2023-09-13T06:14:47.986Z,97837.16
2023-09-13T06:19:53.223Z,97836.06
2023-09-13T06:24:55.059Z,97845.53
2023-09-13T06:29:57.202Z,97847.84
2023-09-13T06:34:59.582Z,97866.06
2023-09-13T06:40:01.746Z,97869.22
2023-09-13T06:45:22.683Z,97869.00
2023-09-13T06:50:52.758Z,97878.31
2023-09-13T06:55:48.632Z,97875.84
2023-09-13T07:01:14.026Z,97897.19
2023-09-13T07:06:13.444Z,97884.75
2023-09-13T07:11:16.997Z,97877.28
2023-09-13T07:16:18.866Z,97885.53
2023-09-13T07:21:20.718Z,97895.44
2023-09-13T07:26:22.854Z,97899.56
2023-09-13T07:31:24.711Z,97907.56
2023-09-13T07:36:26.612Z,97919.34
2023-09-13T07:41:28.715Z,97923.00
2023-09-13T07:46:31.462Z,97920.66
2023-09-13T07:51:33.319Z,97935.31
2023-09-13T07:56:38.517Z,97933.25
2023-09-13T08:01:41.206Z,97937.06
2023-09-13T08:06:43.141Z,97943.66
2023-09-13T08:11:48.319Z,97942.91
2023-09-13T08:16:50.417Z,97951.16
2023-09-13T08:21:52.335Z,97961.59
2023-09-13T08:26:54.153Z,97950.13
2023-09-13T08:31:56.026Z,97956.28
2023-09-13T08:36:58.542Z,97962.75
2023-09-13T08:42:00.682Z,97969.16
2023-09-13T08:47:05.433Z,97973.81
2023-09-13T08:52:08.230Z,97973.44
2023-09-13T08:57:11.248Z,97975.34
2023-09-13T09:02:18.654Z,97975.31
2023-09-13T09:07:21.399Z,97970.16
2023-09-13T09:12:25.244Z,97974.31
2023-09-13T09:17:28.882Z,97979.28
2023-09-13T09:22:31.695Z,97974.50
2023-09-13T09:27:33.605Z,97987.41
2023-09-13T09:32:39.132Z,97987.19
2023-09-13T09:37:41.150Z,97983.09
2023-09-13T09:42:43.209Z,97997.88
2023-09-13T09:47:45.274Z,97995.44
2023-09-13T09:52:53.937Z,97988.81
2023-09-13T09:57:56.249Z,97994.66
2023-09-13T10:02:58.296Z,97991.78
2023-09-13T10:08:00.220Z,98003.34
2023-09-13T10:13:02.213Z,98015.91
2023-09-13T10:18:04.991Z,98013.38
2023-09-13T10:23:12.664Z,98018.19
2023-09-13T10:28:17.320Z,98034.88
2023-09-13T10:33:22.215Z,98027.31
2023-09-13T10:38:41.989Z,98038.81
2023-09-13T10:43:45.672Z,98039.00
2023-09-13T10:48:49.039Z,98051.91
2023-09-13T10:53:51.022Z,98064.75
2023-09-13T10:58:55.199Z,98060.19
2023-09-13T11:03:57.277Z,98065.84
2023-09-13T11:09:12.168Z,98053.03
2023-09-13T11:14:19.073Z,98058.31
2023-09-13T11:19:31.103Z,98055.69
2023-09-13T11:24:49.376Z,98074.22
2023-09-13T11:29:59.793Z,98078.53
2023-09-13T11:35:05.489Z,98103.09
2023-09-13T11:40:13.305Z,98096.13
2023-09-13T11:45:32.209Z,98098.84
2023-09-13T11:50:48.611Z,98108.69
2023-09-13T12:01:05.075Z,98122.50
2023-09-13T12:11:20.580Z,98132.56
2023-09-13T12:16:23.899Z,98130.47
2023-09-13T12:21:25.978Z,98145.84
2023-09-13T12:26:28.784Z,98136.94
2023-09-13T12:31:30.820Z,98138.34
2023-09-13T12:36:34.001Z,98136.50
2023-09-13T12:41:36.033Z,98139.28
2023-09-13T12:46:38.764Z,98139.00
2023-09-13T12:51:41.651Z,98130.38
2023-09-13T12:56:43.714Z,98137.75
2023-09-13T13:01:45.664Z,98131.28
2023-09-13T13:07:03.735Z,98121.84
2023-09-13T13:12:06.079Z,98123.41
2023-09-13T13:17:08.055Z,98124.41
2023-09-13T13:22:15.892Z,98116.84
2023-09-13T13:27:18.749Z,98119.00
2023-09-13T13:32:20.609Z,98114.19
2023-09-13T13:37:22.506Z,98120.22
2023-09-13T13:42:24.336Z,98108.78
2023-09-13T13:47:26.254Z,98108.19
2023-09-13T13:52:28.169Z,98102.00
2023-09-13T13:57:39.726Z,98097.06
2023-09-13T14:02:43.587Z,98093.97
2023-09-13T14:07:45.469Z,98113.13
2023-09-13T14:12:47.350Z,98111.88
2023-09-13T14:17:49.455Z,98103.19
2023-09-13T14:22:51.319Z,98119.50
2023-09-13T14:33:05.291Z,98111.44
2023-09-13T14:38:07.162Z,98133.06
2023-09-13T14:43:08.971Z,98134.94
2023-09-13T14:48:10.890Z,98132.44
2023-09-13T14:53:14.268Z,98129.59
2023-09-13T14:58:16.110Z,98131.41
2023-09-13T15:03:18.193Z,98137.19
2023-09-13T15:08:20.279Z,98141.78
2023-09-13T15:13:23.094Z,98142.91
2023-09-13T15:18:24.994Z,98162.50
2023-09-13T15:23:26.866Z,98154.66
2023-09-13T15:28:28.687Z,98152.34
2023-09-13T15:33:30.594Z,98161.34
2023-09-13T15:38:34.390Z,98153.66
2023-09-13T15:43:40.079Z,98158.09
2023-09-13T15:48:43.316Z,98164.94
2023-09-13T15:53:46.025Z,98170.94
2023-09-13T15:58:48.193Z,98171.84
2023-09-13T16:03:50.199Z,98165.56
2023-09-13T16:08:52.092Z,98173.78
2023-09-13T16:13:53.941Z,98166.41
2023-09-13T16:18:55.827Z,98173.75
2023-09-13T16:23:57.675Z,98169.88
2023-09-13T16:28:59.466Z,98168.72
2023-09-13T16:34:03.222Z,98171.59
2023-09-13T16:39:05.120Z,98178.13
2023-09-13T16:44:07.056Z,98175.88
2023-09-13T16:49:09.832Z,98168.25
2023-09-13T16:54:11.741Z,98173.06
2023-09-13T16:59:14.966Z,98163.88
2023-09-13T17:04:17.064Z,98171.41
2023-09-13T17:09:18.943Z,98177.84
2023-09-13T17:14:21.176Z,98176.72
2023-09-13T17:19:22.998Z,98189.91
2023-09-13T17:24:25.533Z,98181.13
2023-09-13T17:29:31.901Z,98189.00
2023-09-13T17:34:33.766Z,98198.88
2023-09-13T17:39:35.591Z,98201.25
2023-09-13T17:44:37.629Z,98206.88
2023-09-13T17:49:39.465Z,98195.78
2023-09-13T17:54:41.505Z,98215.94
2023-09-13T17:59:43.700Z,98219.72
2023-09-13T18:04:45.731Z,98231.22
2023-09-13T18:09:47.584Z,98227.56
2023-09-13T18:14:50.151Z,98231.66
2023-09-13T18:19:51.937Z,98235.75
2023-09-13T18:24:55.509Z,98234.28
2023-09-13T18:29:58.634Z,98233.72
2023-09-13T18:35:00.608Z,98227.97
2023-09-13T18:40:02.563Z,98235.59
2023-09-13T18:45:05.814Z,98242.53
2023-09-13T18:50:08.708Z,98253.31
2023-09-13T18:55:10.565Z,98266.03
2023-09-13T19:00:14.036Z,98276.41
2023-09-13T19:05:16.197Z,98276.72
2023-09-13T19:10:18.125Z,98283.88
2023-09-13T19:15:19.948Z,98287.84
2023-09-13T19:20:23.858Z,98289.34
2023-09-13T19:25:25.801Z,98298.66
2023-09-13T19:30:27.746Z,98305.84
2023-09-13T19:35:31.422Z,98321.59
2023-09-13T19:40:33.946Z,98328.09
2023-09-13T19:45:35.846Z,98341.59
2023-09-13T19:50:37.684Z,98351.22
2023-09-13T19:55:39.529Z,98349.38
2023-09-13T20:00:46.202Z,98354.66
2023-09-13T20:05:48.252Z,98372.50
2023-09-13T20:10:53.888Z,98379.75
2023-09-13T20:15:58.757Z,98400.16
2023-09-13T20:21:02.678Z,98404.28
2023-09-13T20:26:04.726Z,98405.16
2023-09-13T20:31:06.724Z,98421.63
2023-09-13T20:36:08.607Z,98420.16
2023-09-13T20:41:10.397Z,98429.66
2023-09-13T20:46:12.646Z,98437.94
2023-09-13T20:51:14.545Z,98439.47
2023-09-13T20:56:16.390Z,98450.03
2023-09-13T21:01:18.409Z,98450.00
2023-09-13T21:06:20.439Z,98458.63
2023-09-13T21:11:22.302Z,98458.22
2023-09-13T21:16:24.201Z,98460.47
2023-09-13T21:21:26.074Z,98473.06
2023-09-13T21:26:28.097Z,98473.56
2023-09-13T21:31:30.064Z,98474.41
2023-09-13T21:36:31.995Z,98475.25
2023-09-13T21:41:33.874Z,98479.91
2023-09-13T21:46:35.746Z,98473.19
2023-09-13T21:51:37.716Z,98469.81
2023-09-13T21:56:39.571Z,98479.56
2023-09-13T22:01:43.113Z,98488.13
2023-09-13T22:06:45.170Z,98491.78
2023-09-13T22:11:47.026Z,98497.88
2023-09-13T22:16:48.952Z,98500.41
2023-09-13T22:21:51.692Z,98509.19
2023-09-13T22:26:53.818Z,98509.94
2023-09-13T22:31:55.832Z,98519.78
2023-09-13T22:36:57.778Z,98514.81
2023-09-13T22:42:05.093Z,98511.88
2023-09-13T22:47:08.057Z,98506.03
2023-09-13T22:52:09.973Z,98512.34
2023-09-13T22:57:11.894Z,98518.28
2023-09-13T23:02:13.885Z,98517.16
2023-09-13T23:07:16.492Z,98524.63
2023-09-13T23:12:18.406Z,98527.88
2023-09-13T23:17:21.587Z,98529.50
2023-09-13T23:22:23.482Z,98533.06
2023-09-13T23:27:26.009Z,98539.88
2023-09-13T23:32:28.570Z,98539.19
2023-09-13T23:37:30.554Z,98553.91
2023-09-13T23:42:32.643Z,98557.72
2023-09-13T23:47:34.632Z,98563.13
2023-09-13T23:52:36.623Z,98558.97
2023-09-13T23:57:38.540Z,98559.84
